関西国際空港の過去48時間の天気

関西国際空港 (Kansai intl)

現在時刻: 6/19 15:03 JST (6/19 06:03 UTC) 以下の時間は現地時間です。

過去48時間のMETAR気象情報
時間 風向 風速(m/s) 視程 気温(℃) 湿度(%) 気圧(hPa) 天気現象
19 14:30 西 4 10km以上 26 61 1005
19 14:00 西 3 10km以上 26 58 1005
19 13:30 西 4 10km以上 26 61 1005
19 13:00 西 3 10km以上 25 69 1006
19 12:30 北西 2 10km以上 26 65 1006
19 12:00 北北西 3 10km以上 25 69 1007
19 11:30 北北西 3 10km以上 25 69 1007
19 11:00 北北西 3 10km以上 25 69 1007
19 10:30 2 10km以上 25 65 1008
19 10:00 4 10km以上 24 69 1008
19 09:30 3 10km以上 24 69 1008
19 09:00 3 10km以上 24 69 1008
19 08:30 北北東 3 10km以上 23 78 1008
19 08:00 北北東 2 10km以上 22 83 1008
19 07:30 不定 1 10km以上 21 83 1009
19 07:00 東南東 3 10km以上 21 83 1009
19 06:30 東南東 2 10km以上 20 88 1009
19 06:00 北東 2 10km以上 20 94 1009
19 05:30 不定 1 10km以上 20 94 1009
19 05:00 不定 1 10km以上 20 88 1009
19 04:30 1 10km以上 20 88 1008
19 04:00 2 10km以上 20 88 1009
19 03:30 東南東 2 10km以上 20 94 1008
19 03:00 東北東 2 10km以上 20 88 1009
19 02:30 不定 1 10km以上 21 83 1009
19 02:00 1 10km以上 20 83 1009
19 01:30 南南東 2 10km以上 21 83 1009
19 01:00 南南東 2 10km以上 21 88 1010
19 00:30 南南西 3 10km以上 21 88 1010
19 00:00 南南西 3 10km以上 21 88 1010
18 23:30 南西 4 10km以上 21 83 1010
18 23:00 南西 4 10km以上 21 83 1010
18 22:30 南西 3 10km以上 21 83 1011
18 22:00 南西 4 10km以上 21 83 1011
18 20:30 南西 5 10km以上 21 83 1011
18 20:00 西南西 6 10km以上 22 78 1010
18 19:30 西南西 5 10km以上 22 78 1010
18 17:30 西南西 6 10km以上 23 69 1010
18 17:00 西南西 5 10km以上 25 61 1010
18 16:30 西南西 6 10km以上 24 65 1010
18 16:00 西南西 6 10km以上 23 69 1010
18 15:30 西南西 4 10km以上 24 61 1010
18 15:00 西南西 4 10km以上 24 61 1010
18 14:30 西 2 10km以上 24 61 1011
18 14:00 西 2 10km以上 24 61 1011
18 13:30 西 2 10km以上 24 61 1011
18 13:00 西 2 10km以上 23 65 1011
18 12:30 西北西 2 10km以上 24 61 1011
18 12:00 西北西 2 10km以上 24 61 1012
18 11:30 北西 2 10km以上 22 73 1012
18 11:00 西北西 2 10km以上 23 69 1012
18 10:30 西北西 2 10km以上 23 65 1012
18 10:00 北西 2 10km以上 22 73 1013
18 09:30 北北東 2 10km以上 21 78 1013
18 09:00 北北東 3 10km以上 21 78 1012
18 08:30 2 10km以上 21 83 1013
18 08:00 2 10km以上 21 83 1013
18 07:30 2 10km以上 20 88 1013
18 07:00 北北東 2 10km以上 20 88 1013
18 06:30 不定 1 10km以上 20 88 1013
18 06:00 不定 1 10km以上 20 83 1013
18 05:30 2 10km以上 20 83 1013
17 22:00 不定 1 10km以上 21 78 1013
17 21:30 不定 1 10km以上 20 88 1013
17 21:00 2 10km以上 21 78 1012
17 20:30 不定 1 10km以上 21 83 1012
17 20:00 南南西 2 10km以上 21 83 1011
17 19:00 西 2 10km以上 23 53 1011
17 18:30 西 2 10km以上 24 54 1011
17 18:00 西 2 10km以上 24 50 1011
17 17:30 西 2 10km以上 24 50 1011
17 17:00 西 2 10km以上 24 50 1011
17 16:30 西 2 10km以上 24 50 1011
17 16:00 西 3 10km以上 24 54 1011
17 15:30 西 2 10km以上 24 54 1011
RJBB 190530Z 27008KT 9999 FEW025 BKN/// 26/18 Q1005 NOSIG
RJBB 190500Z 28006KT 9999 FEW025 BKN/// 26/17 Q1005 NOSIG
RJBB 190430Z 26007KT 9999 FEW025 BKN/// 26/18 Q1005 NOSIG
RJBB 190400Z 27005KT 9999 FEW025 BKN/// 25/19 Q1006 NOSIG
RJBB 190330Z 31004KT 9999 FEW025 BKN/// 26/19 Q1006 NOSIG
RJBB 190300Z 33005KT 9999 FEW025 BKN/// 25/19 Q1007 BECMG 30005KT
RJBB 190230Z 34006KT 300V360 9999 FEW030 BKN/// 25/19 Q1007 BECMG 30005KT
RJBB 190200Z 34005KT 9999 FEW030 BKN/// 25/19 Q1007 BECMG 30005KT
RJBB 190130Z 36004KT CAVOK 25/18 Q1008 BECMG 30005KT
RJBB 190100Z 01007KT CAVOK 24/18 Q1008 BECMG 30005KT
RJBB 190030Z 01005KT CAVOK 24/18 Q1008 NOSIG
RJBB 190000Z 01005KT CAVOK 24/18 Q1008 NOSIG
RJBB 182330Z 02005KT CAVOK 23/19 Q1008 NOSIG
RJBB 182300Z 02004KT 9999 FEW020 SCT070 22/19 Q1008 NOSIG
RJBB 182230Z VRB02KT 9999 FEW020 SCT030 BKN070 21/18 Q1009 NOSIG
RJBB 182200Z 12005KT 9999 FEW020 SCT030 BKN070 21/18 Q1009 NOSIG
RJBB 182130Z 11004KT 080V150 9999 FEW020 BKN030 20/18 Q1009 NOSIG
RJBB 182100Z 05003KT 9999 FEW020 BKN030 20/19 Q1009 NOSIG
RJBB 182030Z AUTO VRB01KT 9999 FEW024 BKN027 20/19 Q1009 NOSIG
RJBB 182000Z AUTO VRB01KT 9999 SCT023 20/18 Q1009 NOSIG
RJBB 181930Z AUTO 08002KT 9999 NCD 20/18 Q1008 NOSIG
RJBB 181900Z AUTO 10003KT 9999 NCD 20/18 Q1009 NOSIG
RJBB 181830Z AUTO 11004KT 9999 NCD 20/19 Q1008 NOSIG
RJBB 181800Z AUTO 06003KT 9999 NSC 20/18 Q1009 NOSIG
RJBB 181730Z AUTO VRB02KT 9999 NCD 21/18 Q1009 NOSIG
RJBB 181700Z AUTO 08002KT 9999 NCD 20/17 Q1009 NOSIG
RJBB 181630Z AUTO 15003KT 9999 NSC 21/18 Q1009 NOSIG
RJBB 181600Z AUTO 15004KT 9999 NSC 21/19 Q1010 NOSIG
RJBB 181530Z AUTO 20006KT 9999 NSC 21/19 Q1010 NOSIG
RJBB 181500Z AUTO 21006KT 170V240 9999 NSC 21/19 Q1010 NOSIG
RJBB 181430Z AUTO 22007KT 9999 NCD 21/18 Q1010 NOSIG
RJBB 181400Z AUTO 22007KT 9999 NSC 21/18 Q1010 NOSIG
RJBB 181330Z 23005KT 9999 FEW025 BKN/// 21/18 Q1011 NOSIG
RJBB 181300Z 23007KT 9999 FEW025 SCT/// 21/18 Q1011 NOSIG
RJBB 181130Z 23010KT 9999 FEW025 21/18 Q1011 NOSIG
RJBB 181100Z 24011KT 9999 FEW025 22/18 Q1010 NOSIG
RJBB 181030Z 24010KT 9999 FEW025 22/18 Q1010 NOSIG
RJBB 180830Z 24011KT 9999 FEW030 BKN/// 23/17 Q1010 NOSIG
RJBB 180800Z 24010KT 9999 FEW030 BKN/// 25/17 Q1010 NOSIG
RJBB 180730Z 24012KT 9999 FEW030 BKN/// 24/17 Q1010 NOSIG
RJBB 180700Z 24011KT 9999 FEW030 BKN/// 23/17 Q1010 NOSIG
RJBB 180630Z 25008KT 9999 FEW030 BKN/// 24/16 Q1010 NOSIG
RJBB 180600Z 25007KT 9999 FEW025 OVC/// 24/16 Q1010 NOSIG
RJBB 180530Z 26004KT 9999 FEW025 OVC/// 24/16 Q1011 NOSIG
RJBB 180500Z 27004KT 9999 FEW025 BKN/// 24/16 Q1011 NOSIG
RJBB 180430Z 28003KT 9999 FEW025 SCT080 OVC/// 24/16 Q1011 NOSIG
RJBB 180400Z 28004KT 9999 FEW025 OVC/// 23/16 Q1011 NOSIG
RJBB 180330Z 29003KT 9999 FEW025 OVC/// 24/16 Q1011 NOSIG
RJBB 180300Z 29003KT 9999 FEW025 OVC/// 24/16 Q1012 NOSIG
RJBB 180230Z 31003KT 9999 FEW025 OVC/// 22/17 Q1012 NOSIG
RJBB 180200Z 29003KT 9999 FEW025 OVC/// 23/17 Q1012 NOSIG
RJBB 180130Z 30003KT 270V330 9999 FEW025 SCT080 OVC/// 23/16 Q1012 NOSIG
RJBB 180100Z 32003KT 280V360 9999 FEW030 SCT080 OVC/// 22/17 Q1013 BECMG 29005KT
RJBB 180030Z 02004KT 9999 FEW030 OVC/// 21/17 Q1013 NOSIG
RJBB 180000Z 02005KT CAVOK 21/17 Q1012 NOSIG
RJBB 172330Z 35004KT CAVOK 21/18 Q1013 NOSIG
RJBB 172300Z 01003KT CAVOK 21/18 Q1013 NOSIG
RJBB 172230Z 01003KT CAVOK 20/18 Q1013 NOSIG
RJBB 172200Z 02003KT 350V050 CAVOK 20/18 Q1013 NOSIG
RJBB 172130Z VRB02KT CAVOK 20/18 Q1013 NOSIG
RJBB 172100Z VRB02KT CAVOK 20/17 Q1013 NOSIG
RJBB 172030Z AUTO 35004KT 9999 NCD 20/17 Q1013 NOSIG
RJBB 171300Z VRB02KT 9999 FEW040 SCT/// 21/17 Q1013 NOSIG
RJBB 171230Z VRB01KT 9999 FEW040 20/18 Q1013 NOSIG
RJBB 171200Z 17003KT 100V220 9999 FEW040 21/17 Q1012 NOSIG
RJBB 171130Z VRB02KT 9999 FEW040 21/18 Q1012 NOSIG
RJBB 171100Z 20003KT 120V240 9999 FEW040 SCT/// 21/18 Q1011 NOSIG
RJBB 171000Z 26003KT 9999 FEW040 SCT/// 23/13 Q1011 NOSIG
RJBB 170930Z 27003KT 9999 FEW030 24/14 Q1011 NOSIG
RJBB 170900Z 26003KT 9999 FEW030 24/13 Q1011 NOSIG
RJBB 170830Z 27004KT 9999 FEW030 24/13 Q1011 NOSIG
RJBB 170800Z 26003KT 9999 FEW030 24/13 Q1011 NOSIG
RJBB 170730Z 26004KT 9999 FEW030 24/13 Q1011 NOSIG
RJBB 170700Z 26005KT 9999 FEW030 24/14 Q1011 NOSIG
RJBB 170630Z 26004KT 9999 FEW030 SCT/// 24/14 Q1011 NOSIG